Time;durP1;ratioP1;P1;durP2;ratioP2;P2;SDS_P1;SDS_P2;PMS_P1;PMS_P2;Temp;Humidity;BMP_temperature;BMP_pressure;BME280_temperature;BME280_humidity;BME280_pressure;Samples;Min_cycle;Max_cycle;Signal;HPM_P1;HPM_P2
2021/12/08 00:01:00;;;;;;;;;;;3.20;99.90;;;;;;5099801;28;20457;-79
2021/12/08 00:03:28;;;;;;;;;;;3.30;99.90;;;;;;5133217;27;19919;-79
2021/12/08 00:05:53;;;;;;;;;;;3.20;99.90;;;;;;5132945;27;19920;-81
2021/12/08 00:08:20;;;;;;;;;;;3.20;99.90;;;;;;5115957;28;19927;-80
2021/12/08 00:13:02;;;;;;;;;;;3.20;99.90;;;;;;5132702;27;19977;-80
2021/12/08 00:13:38;;;;;;;;;;;3.20;99.90;;;;;;5132869;28;19923;-80
2021/12/08 00:16:09;;;;;;;;;;;3.20;99.90;;;;;;5096473;28;20367;-81
2021/12/08 00:18:35;;;;;;;;;;;3.30;99.90;;;;;;5115871;28;20368;-80
2021/12/08 00:21:03;;;;;;;;;;;3.20;99.90;;;;;;5116372;28;19930;-81
2021/12/08 00:23:30;;;;;;;;;;;3.20;99.90;;;;;;5116047;28;20348;-81
2021/12/08 00:25:56;;;;;;;;;;;3.30;99.90;;;;;;5132975;28;19992;-81
2021/12/08 00:28:22;;;;;;;;;;;3.30;99.90;;;;;;5130220;27;19927;-81
2021/12/08 00:30:49;;;;;;;;;;;3.20;99.90;;;;;;5156853;27;19920;-81
2021/12/08 00:33:15;;;;;;;;;;;3.30;99.90;;;;;;5152175;27;19920;-82
2021/12/08 00:35:44;;;;;;;;;;;3.30;99.90;;;;;;5137382;27;19968;-79
2021/12/08 00:38:09;;;;;;;;;;;3.30;99.90;;;;;;5119685;27;19923;-80
2021/12/08 00:40:35;;;;;;;;;;;3.40;99.90;;;;;;5136931;27;19919;-81
2021/12/08 00:43:01;;;;;;;;;;;3.20;99.90;;;;;;5120083;27;19924;-80
2021/12/08 00:45:27;;;;;;;;;;;3.30;99.90;;;;;;5103106;27;19954;-80
2021/12/08 00:47:54;;;;;;;;;;;3.40;99.90;;;;;;5136931;27;19919;-81
2021/12/08 00:50:21;;;;;;;;;;;3.30;99.90;;;;;;5119210;27;19919;-81
2021/12/08 00:52:47;;;;;;;;;;;3.40;99.90;;;;;;5119893;27;19970;-81
2021/12/08 00:55:13;;;;;;;;;;;3.40;99.90;;;;;;5119927;27;19926;-80
2021/12/08 00:57:39;;;;;;;;;;;3.40;99.90;;;;;;5119824;27;19942;-81
2021/12/08 01:00:07;;;;;;;;;;;3.50;99.90;;;;;;5119780;27;20348;-81
2021/12/08 01:02:33;;;;;;;;;;;3.60;99.90;;;;;;5136892;27;19919;-81
2021/12/08 01:05:00;;;;;;;;;;;3.60;99.90;;;;;;5119410;27;20390;-81
2021/12/08 01:07:25;;;;;;;;;;;3.70;99.90;;;;;;5136858;27;19920;-81
2021/12/08 01:09:51;;;;;;;;;;;3.70;99.90;;;;;;5136906;27;20374;-81
2021/12/08 01:12:16;;;;;;;;;;;3.60;99.90;;;;;;5136114;27;19998;-81
2021/12/08 01:14:42;;;;;;;;;;;3.70;99.90;;;;;;5119253;27;19923;-81
2021/12/08 01:17:09;;;;;;;;;;;3.70;99.90;;;;;;5119937;27;19984;-79
2021/12/08 01:19:35;;;;;;;;;;;3.70;99.90;;;;;;5119136;27;19942;-81
2021/12/08 01:22:00;;;;;;;;;;;3.70;99.90;;;;;;5136370;27;20364;-80
2021/12/08 01:24:26;;;;;;;;;;;3.70;99.90;;;;;;5122914;27;19920;-81
2021/12/08 01:26:52;;;;;;;;;;;3.60;99.90;;;;;;5119619;27;19965;-80
2021/12/08 01:29:17;;;;;;;;;;;3.60;99.90;;;;;;5119590;27;19927;-80
2021/12/08 01:31:44;;;;;;;;;;;3.60;99.90;;;;;;5136118;27;20356;-79
2021/12/08 01:34:11;;;;;;;;;;;3.70;99.90;;;;;;5136681;27;19958;-82
2021/12/08 01:36:37;;;;;;;;;;;3.70;99.90;;;;;;5119324;27;19919;-81
2021/12/08 01:39:03;;;;;;;;;;;3.70;99.90;;;;;;5153954;27;20379;-79
2021/12/08 01:41:29;;;;;;;;;;;3.70;99.90;;;;;;5118889;27;19920;-79
2021/12/08 01:46:39;;;;;;;;;;;3.70;99.90;;;;;;5136354;27;19925;-79
2021/12/08 01:49:04;;;;;;;;;;;3.80;99.90;;;;;;5119252;27;20014;-80
2021/12/08 01:51:30;;;;;;;;;;;3.70;99.90;;;;;;5118726;27;19923;-80
2021/12/08 01:53:57;;;;;;;;;;;3.80;99.90;;;;;;5154940;27;19968;-81
2021/12/08 01:56:23;;;;;;;;;;;3.70;99.90;;;;;;5174498;27;19919;-84
2021/12/08 01:58:49;;;;;;;;;;;3.80;99.90;;;;;;5174330;27;19918;-80
2021/12/08 02:01:17;;;;;;;;;;;3.70;99.90;;;;;;5187045;27;19925;-81
2021/12/08 02:03:43;;;;;;;;;;;3.80;99.90;;;;;;5136015;27;19974;-80
2021/12/08 02:06:10;;;;;;;;;;;3.80;99.90;;;;;;5135445;27;19955;-80
2021/12/08 02:08:36;;;;;;;;;;;3.80;99.90;;;;;;5116844;27;19962;-82
2021/12/08 02:11:03;;;;;;;;;;;3.80;99.90;;;;;;5118450;27;19982;-81
2021/12/08 02:13:32;;;;;;;;;;;3.80;99.90;;;;;;5134754;27;19964;-82
2021/12/08 02:16:00;;;;;;;;;;;3.80;99.90;;;;;;5118706;27;19926;-81
2021/12/08 02:18:25;;;;;;;;;;;3.80;99.90;;;;;;5118808;27;20000;-80
2021/12/08 02:20:51;;;;;;;;;;;3.90;99.90;;;;;;5112161;27;20347;-80
2021/12/08 02:23:17;;;;;;;;;;;4.00;99.90;;;;;;5118388;27;19983;-80
2021/12/08 02:25:45;;;;;;;;;;;4.00;99.90;;;;;;5153038;27;19919;-80
2021/12/08 02:28:11;;;;;;;;;;;3.90;99.90;;;;;;5118495;27;20380;-81
2021/12/08 02:31:03;;;;;;;;;;;4.00;99.90;;;;;;5105137;28;19924;-81
2021/12/08 02:49:56;;;;;;;;;;;4.10;99.90;;;;;;5113061;27;20363;-80
2021/12/08 02:52:22;;;;;;;;;;;4.10;99.90;;;;;;5114402;28;20013;-82
2021/12/08 02:54:49;;;;;;;;;;;4.10;99.90;;;;;;5131232;27;20012;-82
2021/12/08 02:57:15;;;;;;;;;;;4.20;99.90;;;;;;5132679;27;19927;-82
2021/12/08 02:59:41;;;;;;;;;;;4.20;99.90;;;;;;5110905;28;20309;-82
2021/12/08 03:02:07;;;;;;;;;;;4.20;99.90;;;;;;5131467;27;19920;-83
2021/12/08 03:04:33;;;;;;;;;;;4.20;99.90;;;;;;5130821;27;20374;-87
2021/12/08 03:06:59;;;;;;;;;;;4.20;99.90;;;;;;5113956;28;19999;-82
2021/12/08 03:09:24;;;;;;;;;;;4.20;99.90;;;;;;5114435;28;20014;-83
2021/12/08 03:11:51;;;;;;;;;;;4.30;99.90;;;;;;5133877;27;19998;-82
2021/12/08 03:14:17;;;;;;;;;;;4.30;99.90;;;;;;5134774;27;19920;-81
2021/12/08 03:16:45;;;;;;;;;;;4.30;99.90;;;;;;5134476;27;19923;-82
2021/12/08 03:19:11;;;;;;;;;;;4.30;99.90;;;;;;5134581;27;19924;-81
2021/12/08 03:21:37;;;;;;;;;;;4.30;99.90;;;;;;5133539;27;19988;-82
2021/12/08 03:26:35;;;;;;;;;;;4.30;99.90;;;;;;5134156;27;19920;-81
2021/12/08 03:29:17;;;;;;;;;;;4.40;99.90;;;;;;5134117;27;19988;-81
2021/12/08 03:31:45;;;;;;;;;;;4.30;99.90;;;;;;5103159;28;19945;-82
2021/12/08 03:34:11;;;;;;;;;;;4.40;99.90;;;;;;5080867;27;20018;-81
2021/12/08 03:36:37;;;;;;;;;;;4.40;99.90;;;;;;5117180;27;20275;-81
2021/12/08 03:39:03;;;;;;;;;;;4.50;99.90;;;;;;5116950;27;19919;-81
2021/12/08 03:41:32;;;;;;;;;;;4.50;99.90;;;;;;5134042;27;19920;-81
2021/12/08 03:43:58;;;;;;;;;;;4.50;99.90;;;;;;5117229;27;20263;-81
2021/12/08 03:46:27;;;;;;;;;;;4.50;99.90;;;;;;5134128;27;19919;-81
2021/12/08 03:48:53;;;;;;;;;;;4.60;99.90;;;;;;5130565;27;20271;-82
2021/12/08 03:51:19;;;;;;;;;;;4.50;99.90;;;;;;5133939;27;19949;-81
2021/12/08 03:53:45;;;;;;;;;;;4.60;99.90;;;;;;5099855;27;19926;-82
2021/12/08 03:56:10;;;;;;;;;;;4.60;99.90;;;;;;5134022;27;20309;-81
2021/12/08 03:58:36;;;;;;;;;;;4.60;99.90;;;;;;5133980;27;19920;-82
2021/12/08 04:01:03;;;;;;;;;;;4.60;99.90;;;;;;5133283;27;19972;-81
2021/12/08 04:03:31;;;;;;;;;;;4.70;99.90;;;;;;5131597;27;20267;-81
2021/12/08 04:06:00;;;;;;;;;;;4.70;99.90;;;;;;5133580;27;19920;-82
2021/12/08 04:08:31;;;;;;;;;;;4.70;99.90;;;;;;5133595;27;19923;-81
2021/12/08 04:10:57;;;;;;;;;;;4.70;99.90;;;;;;5115933;28;19926;-82
2021/12/08 04:13:27;;;;;;;;;;;4.70;99.90;;;;;;5115904;28;19930;-82
2021/12/08 04:15:52;;;;;;;;;;;4.70;99.90;;;;;;5133466;28;19919;-81
2021/12/08 04:18:18;;;;;;;;;;;4.80;99.90;;;;;;5133559;28;19947;-82
2021/12/08 04:20:46;;;;;;;;;;;4.80;99.90;;;;;;5116588;28;19969;-81
2021/12/08 04:23:14;;;;;;;;;;;4.80;99.90;;;;;;5116114;28;20355;-82
2021/12/08 04:25:42;;;;;;;;;;;4.90;99.90;;;;;;5112604;28;19926;-81
2021/12/08 04:28:09;;;;;;;;;;;4.90;99.90;;;;;;5116379;28;19920;-81
2021/12/08 04:30:37;;;;;;;;;;;4.90;99.90;;;;;;5130430;28;19920;-82
2021/12/08 04:33:03;;;;;;;;;;;4.90;99.90;;;;;;5129615;28;20433;-82
2021/12/08 04:35:29;;;;;;;;;;;4.90;99.90;;;;;;5119351;28;19950;-81
2021/12/08 04:37:57;;;;;;;;;;;4.90;99.90;;;;;;5133006;28;19919;-82
2021/12/08 04:40:35;;;;;;;;;;;4.90;99.90;;;;;;5115383;28;20301;-81
2021/12/08 04:43:28;;;;;;;;;;;4.90;99.90;;;;;;5116313;28;19984;-82
2021/12/08 04:46:10;;;;;;;;;;;4.90;99.90;;;;;;5132573;27;19923;-82
2021/12/08 05:07:55;;;;;;;;;;;5.20;99.90;;;;;;5130955;28;20461;-82
2021/12/08 05:10:27;;;;;;;;;;;5.10;99.90;;;;;;5116155;28;19943;-82
2021/12/08 05:12:53;;;;;;;;;;;5.10;99.90;;;;;;5132347;28;19919;-85
2021/12/08 05:15:26;;;;;;;;;;;5.10;99.90;;;;;;5099175;28;20240;-82
2021/12/08 05:17:52;;;;;;;;;;;5.00;99.90;;;;;;5133436;27;20007;-81
2021/12/08 05:20:18;;;;;;;;;;;5.10;99.90;;;;;;5136079;27;19992;-81
2021/12/08 05:22:48;;;;;;;;;;;5.10;99.90;;;;;;5119750;27;20354;-81
2021/12/08 05:25:18;;;;;;;;;;;5.20;99.90;;;;;;5119535;27;19923;-81
2021/12/08 05:27:46;;;;;;;;;;;5.10;99.90;;;;;;5137040;27;20267;-82
2021/12/08 05:30:23;;;;;;;;;;;5.10;99.90;;;;;;5119343;27;19919;-82
2021/12/08 05:32:49;;;;;;;;;;;5.10;99.90;;;;;;5119027;27;20317;-81
2021/12/08 05:35:16;;;;;;;;;;;5.10;99.90;;;;;;5119388;27;19927;-82
2021/12/08 05:37:42;;;;;;;;;;;5.00;99.90;;;;;;5119848;27;19926;-81
2021/12/08 05:40:10;;;;;;;;;;;4.90;99.90;;;;;;5140788;27;20348;-81
2021/12/08 05:42:37;;;;;;;;;;;4.90;99.90;;;;;;5146285;27;19923;-81
2021/12/08 05:45:08;;;;;;;;;;;4.90;99.90;;;;;;5111163;27;19962;-82
2021/12/08 05:47:33;;;;;;;;;;;4.90;99.90;;;;;;5192189;27;19919;-81
2021/12/08 05:49:59;;;;;;;;;;;4.90;99.90;;;;;;5122450;27;20406;-82
2021/12/08 05:52:25;;;;;;;;;;;5.00;99.90;;;;;;5133167;27;19962;-82
2021/12/08 05:54:52;;;;;;;;;;;5.00;99.90;;;;;;5118891;27;19923;-81
2021/12/08 05:57:20;;;;;;;;;;;5.10;99.90;;;;;;5101710;27;19923;-82
2021/12/08 05:59:48;;;;;;;;;;;5.00;99.90;;;;;;5118841;27;19942;-81
2021/12/08 06:02:16;;;;;;;;;;;5.00;99.90;;;;;;5118530;27;20352;-81
2021/12/08 06:04:42;;;;;;;;;;;4.90;99.90;;;;;;5135775;27;19976;-81
2021/12/08 06:07:07;;;;;;;;;;;5.00;99.90;;;;;;5134996;27;19973;-81
2021/12/08 06:09:34;;;;;;;;;;;5.10;99.90;;;;;;5135593;27;19944;-81
2021/12/08 06:12:00;;;;;;;;;;;5.10;99.90;;;;;;5117581;27;20033;-82
2021/12/08 06:14:32;;;;;;;;;;;5.10;99.90;;;;;;5118044;27;19926;-81
2021/12/08 06:16:58;;;;;;;;;;;5.10;99.90;;;;;;5134369;27;19947;-81
2021/12/08 06:19:24;;;;;;;;;;;5.20;99.90;;;;;;5143473;27;19926;-82
2021/12/08 06:21:50;;;;;;;;;;;5.20;99.90;;;;;;5117656;27;19919;-81
2021/12/08 06:24:16;;;;;;;;;;;5.30;99.90;;;;;;5134524;27;20011;-81
2021/12/08 06:26:42;;;;;;;;;;;5.40;99.90;;;;;;5134241;27;20301;-80
2021/12/08 06:29:11;;;;;;;;;;;5.30;99.90;;;;;;5134451;27;20017;-81
2021/12/08 06:31:37;;;;;;;;;;;5.30;99.90;;;;;;5117612;27;19919;-82
2021/12/08 06:34:03;;;;;;;;;;;5.30;99.90;;;;;;5134518;27;19919;-81
2021/12/08 06:36:40;;;;;;;;;;;5.40;99.90;;;;;;5134803;27;19919;-81
2021/12/08 06:39:11;;;;;;;;;;;5.30;99.90;;;;;;5118198;27;20023;-87
2021/12/08 06:41:39;;;;;;;;;;;5.30;99.90;;;;;;5118111;27;20359;-82
2021/12/08 06:44:13;;;;;;;;;;;5.30;99.90;;;;;;5118069;27;19980;-82
2021/12/08 06:46:39;;;;;;;;;;;5.30;99.90;;;;;;5135277;27;20267;-83
2021/12/08 06:49:06;;;;;;;;;;;5.30;99.90;;;;;;5135204;27;19919;-91
2021/12/08 06:51:37;;;;;;;;;;;5.30;99.90;;;;;;5134649;27;19926;-84
2021/12/08 06:54:09;;;;;;;;;;;5.30;99.90;;;;;;5117709;27;19920;-84
2021/12/08 06:56:48;;;;;;;;;;;5.30;99.90;;;;;;5116745;27;19967;-83
2021/12/08 06:59:20;;;;;;;;;;;5.30;99.90;;;;;;5134406;27;19919;-85
2021/12/08 07:01:57;;;;;;;;;;;5.40;99.90;;;;;;5118335;27;19920;-88
2021/12/08 07:04:34;;;;;;;;;;;5.30;99.90;;;;;;5151764;27;20371;-85
2021/12/08 07:07:04;;;;;;;;;;;5.40;99.90;;;;;;5133221;27;19926;-86
2021/12/08 07:09:31;;;;;;;;;;;5.40;99.90;;;;;;5114043;28;20290;-86
2021/12/08 07:11:59;;;;;;;;;;;5.40;99.90;;;;;;5096630;28;20280;-86
2021/12/08 07:14:26;;;;;;;;;;;5.40;99.90;;;;;;5096784;28;19926;-84
2021/12/08 07:16:53;;;;;;;;;;;5.50;99.90;;;;;;5113791;28;19920;-84
2021/12/08 07:19:38;;;;;;;;;;;5.40;99.90;;;;;;5113560;28;19926;-84
2021/12/08 07:22:05;;;;;;;;;;;5.40;99.90;;;;;;5113769;28;20378;-84
2021/12/08 07:24:36;;;;;;;;;;;5.50;99.90;;;;;;5113553;28;19923;-84
2021/12/08 07:27:04;;;;;;;;;;;5.40;99.90;;;;;;5113693;28;19923;-83
2021/12/08 07:29:34;;;;;;;;;;;5.50;99.90;;;;;;5113506;28;20262;-80
2021/12/08 07:32:08;;;;;;;;;;;5.50;99.90;;;;;;5120080;27;19920;-84
2021/12/08 07:34:35;;;;;;;;;;;5.50;99.90;;;;;;5116137;27;20681;-82
2021/12/08 07:37:04;;;;;;;;;;;5.50;99.90;;;;;;5116643;27;19967;-83
2021/12/08 07:39:32;;;;;;;;;;;5.50;99.90;;;;;;5133573;27;19920;-82
2021/12/08 07:42:04;;;;;;;;;;;5.50;99.90;;;;;;5116364;27;20009;-82
2021/12/08 07:44:30;;;;;;;;;;;5.50;99.90;;;;;;5116701;27;20177;-83
2021/12/08 07:47:04;;;;;;;;;;;5.40;99.90;;;;;;5133401;27;19978;-81
2021/12/08 07:49:31;;;;;;;;;;;5.40;99.90;;;;;;5133453;27;19920;-83
2021/12/08 07:51:59;;;;;;;;;;;5.40;99.90;;;;;;5133059;27;19919;-83
2021/12/08 07:54:26;;;;;;;;;;;5.40;99.90;;;;;;5115747;27;19927;-82
2021/12/08 07:56:53;;;;;;;;;;;5.50;99.90;;;;;;5133034;27;20332;-82
2021/12/08 07:59:20;;;;;;;;;;;5.40;99.90;;;;;;5133432;27;20017;-83
2021/12/08 08:01:47;;;;;;;;;;;5.50;99.90;;;;;;5116152;27;20386;-82
2021/12/08 08:04:16;;;;;;;;;;;5.50;99.90;;;;;;5116395;27;19927;-83
2021/12/08 08:06:44;;;;;;;;;;;5.50;99.90;;;;;;5133568;27;20371;-82
2021/12/08 08:09:14;;;;;;;;;;;5.50;99.90;;;;;;5132993;27;19942;-83
2021/12/08 08:11:42;;;;;;;;;;;5.50;99.90;;;;;;5116298;28;20363;-83
2021/12/08 08:14:10;;;;;;;;;;;5.60;99.90;;;;;;5142655;27;19919;-83
2021/12/08 08:16:37;;;;;;;;;;;5.50;99.90;;;;;;5133425;28;19926;-82
2021/12/08 08:19:10;;;;;;;;;;;5.50;99.90;;;;;;5116426;28;20056;-81
2021/12/08 08:21:42;;;;;;;;;;;5.50;99.90;;;;;;5133377;28;19944;-80
2021/12/08 08:24:08;;;;;;;;;;;5.60;99.90;;;;;;5133459;28;20046;-81
2021/12/08 08:26:35;;;;;;;;;;;5.60;99.90;;;;;;5146573;27;19920;-81
2021/12/08 08:29:01;;;;;;;;;;;5.50;99.90;;;;;;5101816;28;19923;-80
2021/12/08 08:31:40;;;;;;;;;;;5.60;99.90;;;;;;5115545;28;19954;-79
2021/12/08 08:34:06;;;;;;;;;;;5.50;99.90;;;;;;5139609;27;19919;-89
2021/12/08 08:36:34;;;;;;;;;;;5.60;99.90;;;;;;5109596;28;20332;-80
2021/12/08 08:39:04;;;;;;;;;;;5.50;99.90;;;;;;5130709;28;19942;-81
2021/12/08 08:41:29;;;;;;;;;;;5.50;99.90;;;;;;5110682;28;19919;-82
2021/12/08 08:43:56;;;;;;;;;;;5.50;99.90;;;;;;5107656;28;19926;-80
2021/12/08 08:46:27;;;;;;;;;;;5.50;99.90;;;;;;5130761;28;19919;-82
2021/12/08 08:49:04;;;;;;;;;;;5.50;99.90;;;;;;5127813;28;19920;-81
2021/12/08 08:51:33;;;;;;;;;;;5.50;99.90;;;;;;5130603;28;19926;-80
2021/12/08 08:54:01;;;;;;;;;;;5.50;99.90;;;;;;5128803;27;19919;-81
2021/12/08 08:56:30;;;;;;;;;;;5.50;99.90;;;;;;5127240;27;20351;-80
2021/12/08 08:58:58;;;;;;;;;;;5.50;99.90;;;;;;5133900;27;20401;-82
2021/12/08 09:01:26;;;;;;;;;;;5.50;99.90;;;;;;5133294;27;20356;-81
2021/12/08 09:03:57;;;;;;;;;;;5.40;99.90;;;;;;5127413;27;19919;-81
2021/12/08 09:06:30;;;;;;;;;;;5.30;99.90;;;;;;5105865;27;20348;-81
2021/12/08 09:08:56;;;;;;;;;;;5.30;99.90;;;;;;5123942;27;19920;-81
2021/12/08 09:11:33;;;;;;;;;;;5.30;99.90;;;;;;5109355;27;19926;-82
2021/12/08 09:14:00;;;;;;;;;;;5.20;99.90;;;;;;5132636;27;19964;-81
2021/12/08 09:16:34;;;;;;;;;;;5.30;99.90;;;;;;5105487;27;19919;-80
2021/12/08 09:19:05;;;;;;;;;;;5.30;99.90;;;;;;5133298;27;19924;-82
2021/12/08 09:21:49;;;;;;;;;;;5.30;99.90;;;;;;5119010;27;19924;-81
2021/12/08 09:24:24;;;;;;;;;;;5.30;99.90;;;;;;5139510;27;19981;-81
2021/12/08 09:26:51;;;;;;;;;;;5.30;99.90;;;;;;5125849;27;19942;-81
2021/12/08 09:29:19;;;;;;;;;;;5.30;99.90;;;;;;5130579;27;19926;-81
2021/12/08 09:31:54;;;;;;;;;;;5.30;99.90;;;;;;5110290;27;19920;-80
2021/12/08 09:34:23;;;;;;;;;;;5.30;99.90;;;;;;5110320;27;19970;-80
2021/12/08 09:36:53;;;;;;;;;;;5.40;99.90;;;;;;5115440;27;20432;-81
2021/12/08 09:39:25;;;;;;;;;;;5.40;99.90;;;;;;5135157;27;20263;-81
2021/12/08 09:42:03;;;;;;;;;;;5.40;99.90;;;;;;5140994;27;19930;-81
2021/12/08 09:44:33;;;;;;;;;;;5.40;99.90;;;;;;5112469;27;19919;-82
2021/12/08 09:46:59;;;;;;;;;;;5.40;99.90;;;;;;5162767;27;20024;-80
2021/12/08 09:49:26;;;;;;;;;;;5.40;99.90;;;;;;5116437;27;19962;-80
2021/12/08 09:51:52;;;;;;;;;;;5.40;99.90;;;;;;5115246;27;20355;-77
2021/12/08 09:54:18;;;;;;;;;;;5.40;99.90;;;;;;5130396;27;19961;-81
2021/12/08 09:56:45;;;;;;;;;;;5.50;99.90;;;;;;5133370;27;19919;-82
2021/12/08 09:59:11;;;;;;;;;;;5.50;99.90;;;;;;5113579;27;19973;-78
2021/12/08 10:01:40;;;;;;;;;;;5.50;99.90;;;;;;5130751;27;20014;-81
2021/12/08 10:04:06;;;;;;;;;;;5.60;99.90;;;;;;5135997;27;19960;-80
2021/12/08 10:06:31;;;;;;;;;;;5.60;99.90;;;;;;5130488;27;20010;-80
2021/12/08 10:08:57;;;;;;;;;;;5.70;99.90;;;;;;5133765;27;19920;-78
2021/12/08 10:11:24;;;;;;;;;;;5.60;99.90;;;;;;5135603;27;19926;-80
2021/12/08 10:13:50;;;;;;;;;;;5.60;99.90;;;;;;5117787;27;19926;-80
2021/12/08 10:16:15;;;;;;;;;;;5.70;99.90;;;;;;5118834;27;19920;-80
2021/12/08 10:18:42;;;;;;;;;;;5.60;99.90;;;;;;5135805;27;19923;-81
2021/12/08 10:21:07;;;;;;;;;;;5.70;99.90;;;;;;5098031;28;19924;-81
2021/12/08 10:23:35;;;;;;;;;;;5.70;99.90;;;;;;5098226;28;19920;-81
2021/12/08 10:26:00;;;;;;;;;;;5.80;99.90;;;;;;5149165;27;20398;-81
2021/12/08 10:28:26;;;;;;;;;;;5.80;99.90;;;;;;5098298;28;19920;-81
2021/12/08 10:30:56;;;;;;;;;;;5.80;99.90;;;;;;5114771;28;19966;-80
2021/12/08 10:39:01;;;;;;;;;;;5.90;99.90;;;;;;5135414;27;19919;-80
2021/12/08 10:41:41;;;;;;;;;;;5.90;99.90;;;;;;5135487;27;19919;-80
2021/12/08 10:44:06;;;;;;;;;;;6.00;99.90;;;;;;5123886;27;19919;-80
2021/12/08 10:46:34;;;;;;;;;;;5.90;99.90;;;;;;5149240;27;19927;-80
2021/12/08 10:54:22;;;;;;;;;;;6.00;99.90;;;;;;5131451;27;20359;-80
2021/12/08 10:54:49;;;;;;;;;;;6.10;99.90;;;;;;5127314;27;20006;-81
2021/12/08 10:57:20;;;;;;;;;;;6.10;99.90;;;;;;5117603;27;19998;-81
2021/12/08 10:59:57;;;;;;;;;;;6.20;99.90;;;;;;5134918;27;19919;-81
2021/12/08 11:02:36;;;;;;;;;;;6.20;99.90;;;;;;5117630;27;19923;-81
2021/12/08 11:05:02;;;;;;;;;;;6.10;99.90;;;;;;5115900;27;19923;-81
2021/12/08 11:07:28;;;;;;;;;;;6.10;99.90;;;;;;5117774;27;19919;-81
2021/12/08 11:09:53;;;;;;;;;;;6.10;99.90;;;;;;5117647;27;19919;-81
2021/12/08 11:12:20;;;;;;;;;;;6.20;99.90;;;;;;5116842;27;19920;-81
2021/12/08 11:14:47;;;;;;;;;;;6.30;99.90;;;;;;5132401;27;19920;-87
2021/12/08 11:17:32;;;;;;;;;;;6.40;99.90;;;;;;5151371;27;20013;-80
2021/12/08 11:20:17;;;;;;;;;;;6.40;99.90;;;;;;5151000;27;19938;-85
2021/12/08 11:22:44;;;;;;;;;;;6.40;99.90;;;;;;5142275;27;19919;-83
2021/12/08 11:25:21;;;;;;;;;;;6.60;99.90;;;;;;5125814;27;20304;-83
2021/12/08 11:27:47;;;;;;;;;;;6.80;99.90;;;;;;5143522;27;19968;-84
2021/12/08 11:30:14;;;;;;;;;;;7.00;99.90;;;;;;5119662;27;20334;-84
2021/12/08 11:32:39;;;;;;;;;;;6.80;99.90;;;;;;5113405;28;19920;-83
2021/12/08 11:35:17;;;;;;;;;;;6.80;99.90;;;;;;5121703;27;19927;-82
2021/12/08 11:37:43;;;;;;;;;;;6.70;99.90;;;;;;5152198;27;20364;-84
2021/12/08 11:40:15;;;;;;;;;;;6.60;99.90;;;;;;5107346;27;19919;-83
2021/12/08 11:42:40;;;;;;;;;;;6.40;99.90;;;;;;5133100;27;20563;-83
2021/12/08 11:45:15;;;;;;;;;;;6.40;99.90;;;;;;5133834;27;19926;-82
2021/12/08 11:47:42;;;;;;;;;;;6.30;99.90;;;;;;5101589;28;19928;-82
2021/12/08 11:50:09;;;;;;;;;;;6.30;99.90;;;;;;5106616;28;20264;-82
2021/12/08 11:52:35;;;;;;;;;;;6.30;99.90;;;;;;5117566;27;20014;-82
2021/12/08 11:55:07;;;;;;;;;;;6.20;99.90;;;;;;5103555;28;20045;-83
2021/12/08 11:57:36;;;;;;;;;;;6.20;99.90;;;;;;5114522;27;21668;-82
2021/12/08 12:00:06;;;;;;;;;;;6.10;99.90;;;;;;5106597;27;20546;-81
2021/12/08 12:02:37;;;;;;;;;;;6.10;99.90;;;;;;5122143;27;20019;-81
2021/12/08 12:05:04;;;;;;;;;;;6.10;99.90;;;;;;5118920;27;19919;-83
2021/12/08 12:07:30;;;;;;;;;;;6.10;99.90;;;;;;5126216;27;19934;-81
2021/12/08 12:09:56;;;;;;;;;;;6.30;99.90;;;;;;5095600;28;19919;-81
2021/12/08 12:12:21;;;;;;;;;;;6.20;99.90;;;;;;5111251;27;19920;-81
2021/12/08 12:14:47;;;;;;;;;;;6.10;99.90;;;;;;5106928;28;20275;-81
2021/12/08 12:17:13;;;;;;;;;;;6.10;99.90;;;;;;5107777;28;19920;-84
2021/12/08 12:19:48;;;;;;;;;;;6.10;99.90;;;;;;5106105;28;19949;-80
2021/12/08 12:22:39;;;;;;;;;;;6.20;99.90;;;;;;5132617;27;19926;-82
2021/12/08 12:25:24;;;;;;;;;;;6.30;99.90;;;;;;5095865;28;19965;-82
2021/12/08 12:28:28;;;;;;;;;;;6.30;99.90;;;;;;5131254;27;19927;-80
2021/12/08 12:31:17;;;;;;;;;;;6.20;99.90;;;;;;5078929;28;20403;-82
2021/12/08 12:33:44;;;;;;;;;;;6.20;99.90;;;;;;5115917;28;20004;-81
2021/12/08 12:36:36;;;;;;;;;;;6.10;99.90;;;;;;5108502;28;20393;-81
2021/12/08 12:39:09;;;;;;;;;;;6.10;99.90;;;;;;5112538;28;19981;-81
2021/12/08 12:41:35;;;;;;;;;;;6.10;99.90;;;;;;5151358;27;20363;-83
2021/12/08 12:44:15;;;;;;;;;;;6.00;99.90;;;;;;5133512;27;19974;-82
2021/12/08 12:46:59;;;;;;;;;;;6.00;99.90;;;;;;5116253;28;19953;-81
2021/12/08 12:49:25;;;;;;;;;;;6.00;99.90;;;;;;5116105;28;19919;-81
2021/12/08 12:51:57;;;;;;;;;;;6.10;99.90;;;;;;5114072;28;19988;-81
2021/12/08 12:54:24;;;;;;;;;;;6.00;99.90;;;;;;5150451;27;19928;-83
2021/12/08 12:56:50;;;;;;;;;;;6.00;99.90;;;;;;5124771;27;19920;-81
2021/12/08 12:59:20;;;;;;;;;;;6.10;99.90;;;;;;5124700;27;19927;-81
2021/12/08 13:02:02;;;;;;;;;;;6.10;99.90;;;;;;5126504;27;20041;-81
2021/12/08 13:04:27;;;;;;;;;;;6.30;99.90;;;;;;5129986;27;20409;-82
2021/12/08 13:06:57;;;;;;;;;;;6.30;99.90;;;;;;5134602;27;19924;-83
2021/12/08 13:09:43;;;;;;;;;;;6.30;99.90;;;;;;5100097;28;20284;-81
2021/12/08 13:12:16;;;;;;;;;;;6.40;99.90;;;;;;5097013;28;19923;-81
2021/12/08 13:14:43;;;;;;;;;;;6.40;99.90;;;;;;5119628;27;20080;-81
2021/12/08 13:17:10;;;;;;;;;;;6.40;99.90;;;;;;5131368;27;19929;-81
2021/12/08 13:19:40;;;;;;;;;;;6.50;99.90;;;;;;5132970;27;19928;-82
2021/12/08 13:22:06;;;;;;;;;;;6.50;99.90;;;;;;5137448;27;19969;-85
2021/12/08 13:24:36;;;;;;;;;;;6.60;99.90;;;;;;5132489;27;19923;-84
2021/12/08 13:27:04;;;;;;;;;;;6.60;99.90;;;;;;5098664;28;19931;-81
2021/12/08 13:29:33;;;;;;;;;;;6.70;99.90;;;;;;5119238;27;20271;-82
2021/12/08 13:32:09;;;;;;;;;;;6.70;99.90;;;;;;5102299;27;20409;-82
2021/12/08 13:34:34;;;;;;;;;;;6.70;99.90;;;;;;5153377;27;19927;-84
2021/12/08 13:37:14;;;;;;;;;;;6.70;99.90;;;;;;5102094;27;19919;-83
2021/12/08 13:39:44;;;;;;;;;;;6.70;99.90;;;;;;5118975;27;19989;-82
2021/12/08 13:42:11;;;;;;;;;;;6.60;99.90;;;;;;5149277;27;20014;-83
2021/12/08 13:44:38;;;;;;;;;;;6.50;99.90;;;;;;5115568;28;19923;-81
2021/12/08 13:47:03;;;;;;;;;;;6.50;99.90;;;;;;5132826;27;19920;-81
2021/12/08 13:49:35;;;;;;;;;;;6.50;99.90;;;;;;5142645;27;20360;-84
2021/12/08 13:52:07;;;;;;;;;;;6.50;99.90;;;;;;5135758;27;20260;-82
2021/12/08 13:54:34;;;;;;;;;;;6.50;99.90;;;;;;5109592;27;19970;-82
2021/12/08 13:57:01;;;;;;;;;;;6.40;99.90;;;;;;5144381;27;19919;-82
2021/12/08 13:59:45;;;;;;;;;;;6.30;99.90;;;;;;5133072;27;19919;-81
2021/12/08 14:02:18;;;;;;;;;;;6.20;99.90;;;;;;5125564;27;19924;-82
2021/12/08 14:04:44;;;;;;;;;;;6.10;99.90;;;;;;5109960;27;19944;-81
2021/12/08 14:07:17;;;;;;;;;;;6.00;99.90;;;;;;5114163;27;19919;-87
2021/12/08 14:09:42;;;;;;;;;;;6.00;99.90;;;;;;5132523;27;19924;-83
2021/12/08 14:12:08;;;;;;;;;;;5.90;99.90;;;;;;5098241;28;20457;-83
2021/12/08 14:14:33;;;;;;;;;;;5.90;99.90;;;;;;5114557;28;19926;-84
2021/12/08 14:16:59;;;;;;;;;;;6.00;99.90;;;;;;5095393;27;19923;-83
2021/12/08 14:19:35;;;;;;;;;;;6.00;99.90;;;;;;5134019;27;20317;-83
2021/12/08 14:22:01;;;;;;;;;;;5.90;99.90;;;;;;5103549;28;20385;-82
2021/12/08 14:24:27;;;;;;;;;;;5.90;99.90;;;;;;5161066;27;20006;-83
2021/12/08 14:26:52;;;;;;;;;;;5.80;99.90;;;;;;5135687;27;19919;-83
2021/12/08 14:29:20;;;;;;;;;;;5.80;99.90;;;;;;5123843;27;20252;-83
2021/12/08 14:31:48;;;;;;;;;;;5.80;99.90;;;;;;5137214;27;20313;-83
2021/12/08 14:34:24;;;;;;;;;;;5.80;99.90;;;;;;5097854;28;19927;-89
2021/12/08 14:36:51;;;;;;;;;;;5.70;99.90;;;;;;5105228;28;19919;-83
2021/12/08 14:39:38;;;;;;;;;;;5.70;99.90;;;;;;5098314;28;19976;-83
2021/12/08 14:42:14;;;;;;;;;;;5.70;99.90;;;;;;5097858;28;19978;-82
2021/12/08 14:44:45;;;;;;;;;;;5.80;99.90;;;;;;5114646;28;19963;-83
2021/12/08 14:47:12;;;;;;;;;;;5.70;99.90;;;;;;5130297;27;19919;-83
2021/12/08 14:49:41;;;;;;;;;;;5.70;99.90;;;;;;5134996;27;20264;-84
2021/12/08 14:52:08;;;;;;;;;;;5.70;99.90;;;;;;5133606;27;19932;-83
2021/12/08 14:54:35;;;;;;;;;;;5.70;99.90;;;;;;5134900;27;19931;-83
2021/12/08 14:57:13;;;;;;;;;;;5.70;99.90;;;;;;5117866;27;19923;-83
2021/12/08 14:59:56;;;;;;;;;;;5.70;99.90;;;;;;5117670;27;19930;-83
2021/12/08 15:02:32;;;;;;;;;;;5.60;99.90;;;;;;5116498;27;19923;-83
2021/12/08 15:04:58;;;;;;;;;;;5.70;99.90;;;;;;5114192;28;19985;-82
2021/12/08 15:07:25;;;;;;;;;;;5.60;99.90;;;;;;5156131;27;19997;-82
2021/12/08 15:10:00;;;;;;;;;;;5.60;99.90;;;;;;5117250;27;19924;-84
2021/12/08 15:12:26;;;;;;;;;;;5.60;99.90;;;;;;5116379;27;19948;-82
2021/12/08 15:14:51;;;;;;;;;;;5.60;99.90;;;;;;5098898;28;19923;-81
2021/12/08 15:17:27;;;;;;;;;;;5.60;99.90;;;;;;5130884;27;19961;-82
2021/12/08 15:19:53;;;;;;;;;;;5.50;99.90;;;;;;5131222;27;19998;-81
2021/12/08 15:22:25;;;;;;;;;;;5.60;99.90;;;;;;5079658;28;20368;-82
2021/12/08 15:25:05;;;;;;;;;;;5.50;99.90;;;;;;5127855;27;20208;-82
2021/12/08 15:27:34;;;;;;;;;;;5.60;99.90;;;;;;5133334;27;20196;-82
2021/12/08 15:30:00;;;;;;;;;;;5.60;99.90;;;;;;5116833;27;19968;-82
2021/12/08 15:32:25;;;;;;;;;;;5.60;99.90;;;;;;5099083;27;19923;-82